createdAt,value
2022-11-30T00:01:20.559Z,18.33
2022-11-30T00:03:48.337Z,17.87
2022-11-30T00:06:16.900Z,15.73
2022-11-30T00:08:43.586Z,17.27
2022-11-30T00:11:15.282Z,17.00
2022-11-30T00:13:42.537Z,18.00
2022-11-30T00:16:10.164Z,17.83
2022-11-30T00:18:37.505Z,17.80
2022-11-30T00:21:08.630Z,18.77
2022-11-30T00:23:37.885Z,19.00
2022-11-30T00:26:07.151Z,19.20
2022-11-30T00:28:34.821Z,17.87
2022-11-30T00:31:04.175Z,17.93
2022-11-30T00:33:34.635Z,19.27
2022-11-30T00:36:04.273Z,17.83
2022-11-30T00:38:32.772Z,17.83
2022-11-30T00:41:00.708Z,18.33
2022-11-30T00:43:27.578Z,19.00
2022-11-30T00:45:54.773Z,18.30
2022-11-30T00:48:21.521Z,19.87
2022-11-30T00:50:49.851Z,18.77
2022-11-30T00:53:17.299Z,19.53
2022-11-30T00:55:45.177Z,18.63
2022-11-30T00:58:12.669Z,18.40
2022-11-30T01:00:40.365Z,20.17
2022-11-30T01:03:07.378Z,18.00
2022-11-30T01:05:34.662Z,19.30
2022-11-30T01:08:02.538Z,19.83
2022-11-30T01:10:29.254Z,18.67
2022-11-30T01:12:56.160Z,19.47
2022-11-30T01:15:23.348Z,18.83
2022-11-30T01:17:50.027Z,19.37
2022-11-30T01:20:16.717Z,18.07
2022-11-30T01:22:43.473Z,18.27
2022-11-30T01:25:10.194Z,18.63
2022-11-30T01:27:36.829Z,18.00
2022-11-30T01:30:05.321Z,18.27
2022-11-30T01:32:32.075Z,18.90
2022-11-30T01:34:58.722Z,18.40
2022-11-30T01:37:25.283Z,19.40
2022-11-30T01:39:51.881Z,18.43
2022-11-30T01:42:20.818Z,20.00
2022-11-30T01:44:57.377Z,18.93
2022-11-30T01:47:29.565Z,20.93
2022-11-30T01:50:13.524Z,19.83
2022-11-30T01:52:43.541Z,19.63
2022-11-30T01:55:24.647Z,20.60
2022-11-30T01:58:00.467Z,19.13
2022-11-30T02:00:27.279Z,20.50
2022-11-30T02:03:12.892Z,19.57
2022-11-30T02:05:41.366Z,19.73
2022-11-30T02:08:10.781Z,18.67
2022-11-30T02:10:45.131Z,18.83
2022-11-30T02:13:33.600Z,18.93
2022-11-30T02:16:03.029Z,19.10
2022-11-30T02:18:59.258Z,18.60
2022-11-30T02:21:40.892Z,18.37
2022-11-30T02:24:10.597Z,17.67
2022-11-30T02:26:54.664Z,17.67
2022-11-30T02:29:31.832Z,16.93
2022-11-30T02:32:11.926Z,17.63
2022-11-30T02:34:41.486Z,19.13
2022-11-30T02:37:10.790Z,18.50
2022-11-30T02:39:37.379Z,18.17
2022-11-30T02:42:04.050Z,18.27
2022-11-30T02:44:30.809Z,16.13
2022-11-30T02:47:23.629Z,16.47
2022-11-30T02:49:56.579Z,17.53
2022-11-30T02:52:27.097Z,16.40
2022-11-30T02:55:06.369Z,16.90
2022-11-30T02:57:34.013Z,16.03
2022-11-30T03:00:03.482Z,17.33
2022-11-30T03:02:30.156Z,16.47
2022-11-30T03:04:56.829Z,16.77
2022-11-30T03:07:23.481Z,17.00
2022-11-30T03:09:50.392Z,17.87
2022-11-30T03:12:16.980Z,16.23
2022-11-30T03:14:43.749Z,16.47
2022-11-30T03:17:10.514Z,18.13
2022-11-30T03:19:37.083Z,15.73
2022-11-30T03:22:03.999Z,18.00
2022-11-30T03:24:30.582Z,16.13
2022-11-30T03:26:57.434Z,17.07
2022-11-30T03:29:24.154Z,17.03
2022-11-30T03:31:50.803Z,16.97
2022-11-30T03:34:17.429Z,16.57
2022-11-30T03:36:44.037Z,14.80
2022-11-30T03:39:10.643Z,13.77
2022-11-30T03:41:37.238Z,13.30
2022-11-30T03:44:03.819Z,12.67
2022-11-30T03:46:30.598Z,11.47
2022-11-30T03:48:57.245Z,11.47
2022-11-30T03:51:23.851Z,11.40
2022-11-30T03:53:50.497Z,10.70
2022-11-30T03:56:17.312Z,9.50
2022-11-30T03:58:43.950Z,8.43
2022-11-30T04:01:16.137Z,8.37
2022-11-30T04:03:43.587Z,7.27
2022-11-30T04:06:12.373Z,7.00
2022-11-30T04:08:40.125Z,7.00
2022-11-30T04:11:07.149Z,7.70
2022-11-30T04:13:35.774Z,7.20
2022-11-30T04:16:02.609Z,6.90
2022-11-30T04:18:30.521Z,7.50
2022-11-30T04:20:59.380Z,6.50
2022-11-30T04:23:30.002Z,5.90
2022-11-30T04:25:57.449Z,7.20
2022-11-30T04:28:24.176Z,7.47
2022-11-30T04:30:50.793Z,7.77
2022-11-30T04:33:17.353Z,6.50
2022-11-30T04:35:49.340Z,7.30
2022-11-30T04:38:16.006Z,6.50
2022-11-30T04:40:43.517Z,7.40
2022-11-30T04:43:11.664Z,6.97
2022-11-30T04:45:38.696Z,5.80
2022-11-30T04:48:06.180Z,6.30
2022-11-30T04:50:33.080Z,6.33
2022-11-30T04:52:59.839Z,5.90
2022-11-30T04:55:26.580Z,6.10
2022-11-30T04:57:53.505Z,5.43
2022-11-30T05:00:20.385Z,6.00
2022-11-30T05:02:52.435Z,5.80
2022-11-30T05:05:20.132Z,6.40
2022-11-30T05:07:54.546Z,6.13
2022-11-30T05:10:21.158Z,6.57
2022-11-30T05:12:47.838Z,7.00
2022-11-30T05:15:14.448Z,6.80
2022-11-30T05:17:41.044Z,6.60
2022-11-30T05:20:08.004Z,7.10
2022-11-30T05:22:37.524Z,7.27
2022-11-30T05:25:04.388Z,7.40
2022-11-30T05:27:30.979Z,7.50
2022-11-30T05:29:57.537Z,8.20
2022-11-30T05:32:24.202Z,8.30
2022-11-30T05:34:51.924Z,8.77
2022-11-30T05:37:19.694Z,9.13
2022-11-30T05:39:46.353Z,10.13
2022-11-30T05:42:12.999Z,9.13
2022-11-30T05:44:39.575Z,11.03
2022-11-30T05:47:06.277Z,12.93
2022-11-30T05:49:32.888Z,12.57
2022-11-30T05:51:59.498Z,15.40
2022-11-30T05:54:26.059Z,17.60
2022-11-30T05:56:55.000Z,14.07
2022-11-30T05:59:22.789Z,14.70
2022-11-30T06:01:52.370Z,14.23
2022-11-30T06:04:19.717Z,15.53
2022-11-30T06:06:46.365Z,14.97
2022-11-30T06:09:12.980Z,14.07
2022-11-30T06:11:39.558Z,12.87
2022-11-30T06:14:06.276Z,12.30
2022-11-30T06:16:33.121Z,16.37
2022-11-30T06:18:59.911Z,14.27
2022-11-30T06:21:26.490Z,12.47
2022-11-30T06:23:53.121Z,12.10
2022-11-30T06:26:19.796Z,11.63
2022-11-30T06:28:48.439Z,13.50
2022-11-30T06:31:16.162Z,12.70
2022-11-30T06:33:42.950Z,13.03
2022-11-30T06:36:09.967Z,12.97
2022-11-30T06:38:36.830Z,12.23
2022-11-30T06:41:09.283Z,11.30
2022-11-30T06:43:39.642Z,13.37
2022-11-30T06:46:07.584Z,13.03
2022-11-30T06:48:35.467Z,12.77
2022-11-30T06:51:05.598Z,14.23
2022-11-30T06:53:32.203Z,16.00
2022-11-30T06:55:58.790Z,16.37
2022-11-30T06:58:25.378Z,14.10
2022-11-30T07:00:51.965Z,13.63
2022-11-30T07:03:18.584Z,13.83
2022-11-30T07:05:46.903Z,14.73
2022-11-30T07:08:17.466Z,13.40
2022-11-30T07:10:45.801Z,12.23
2022-11-30T07:13:18.405Z,12.73
2022-11-30T07:15:45.671Z,14.70
2022-11-30T07:18:12.768Z,15.37
2022-11-30T07:20:39.643Z,15.83
2022-11-30T07:23:24.725Z,18.33
2022-11-30T07:26:08.081Z,14.80
2022-11-30T07:28:36.593Z,12.80
2022-11-30T07:31:23.446Z,17.83
2022-11-30T07:33:50.697Z,14.50
2022-11-30T07:36:19.039Z,14.30
2022-11-30T07:38:46.268Z,13.27
2022-11-30T07:41:13.210Z,14.23
2022-11-30T07:43:40.370Z,16.63
2022-11-30T07:46:07.392Z,15.23
2022-11-30T07:48:35.220Z,14.33
2022-11-30T07:51:06.890Z,13.07
2022-11-30T07:53:34.226Z,13.20
2022-11-30T07:56:12.106Z,13.87
2022-11-30T07:58:39.506Z,13.73
2022-11-30T08:01:08.735Z,13.37
2022-11-30T08:03:37.431Z,14.47
2022-11-30T08:06:10.081Z,16.97
2022-11-30T08:08:39.118Z,15.73
2022-11-30T08:11:07.848Z,16.70
2022-11-30T08:13:34.520Z,17.07
2022-11-30T08:16:06.784Z,17.77
2022-11-30T08:18:33.418Z,17.10
2022-11-30T08:21:02.646Z,20.67
2022-11-30T08:23:31.052Z,14.97
2022-11-30T08:26:03.425Z,16.67
2022-11-30T08:28:30.748Z,15.37
2022-11-30T08:31:01.406Z,17.30
2022-11-30T08:33:30.789Z,17.90
2022-11-30T08:36:07.863Z,22.17
2022-11-30T08:38:35.044Z,19.23
2022-11-30T08:41:02.171Z,16.93
2022-11-30T08:43:28.904Z,16.37
2022-11-30T08:45:57.322Z,17.57
2022-11-30T08:48:24.431Z,19.33
2022-11-30T08:50:51.567Z,16.50
2022-11-30T08:53:18.208Z,14.20
2022-11-30T08:55:54.492Z,16.60
2022-11-30T08:58:21.088Z,14.77
2022-11-30T09:00:47.677Z,12.73
2022-11-30T09:03:14.285Z,10.60
2022-11-30T09:05:40.849Z,10.40
2022-11-30T09:08:07.611Z,11.73
2022-11-30T09:10:34.240Z,10.43
2022-11-30T09:13:00.879Z,10.07
2022-11-30T09:15:27.985Z,9.60
2022-11-30T09:17:54.547Z,9.83
2022-11-30T09:20:21.136Z,11.33
2022-11-30T09:22:47.712Z,9.87
2022-11-30T09:25:14.408Z,10.83
2022-11-30T09:27:40.951Z,10.80
2022-11-30T09:30:08.157Z,11.30
2022-11-30T09:32:34.769Z,11.83
2022-11-30T09:35:01.378Z,12.30
2022-11-30T09:37:27.952Z,11.80
2022-11-30T09:39:54.573Z,12.03
2022-11-30T09:42:31.735Z,14.50
2022-11-30T09:45:03.194Z,12.13
2022-11-30T09:47:39.021Z,12.37
2022-11-30T09:50:16.100Z,13.70
2022-11-30T09:52:46.899Z,16.10
2022-11-30T09:55:22.349Z,16.13
2022-11-30T09:57:58.792Z,19.17
2022-11-30T10:00:25.827Z,16.20
2022-11-30T10:02:56.225Z,17.00
2022-11-30T10:05:47.901Z,11.23
2022-11-30T10:08:28.108Z,13.83
2022-11-30T10:11:08.798Z,13.20
2022-11-30T10:13:55.651Z,13.00
2022-11-30T10:16:43.902Z,13.80
2022-11-30T10:19:41.522Z,12.80
2022-11-30T10:22:26.057Z,12.63
2022-11-30T10:25:14.525Z,13.87
2022-11-30T10:27:50.845Z,14.60
2022-11-30T10:30:32.443Z,15.13
2022-11-30T10:33:07.574Z,14.23
2022-11-30T10:35:34.132Z,13.80
2022-11-30T10:38:10.674Z,15.40
2022-11-30T10:40:53.040Z,15.67
2022-11-30T10:43:48.751Z,14.63
2022-11-30T10:46:22.170Z,18.50
2022-11-30T10:48:57.737Z,17.20
2022-11-30T10:51:26.616Z,17.17
2022-11-30T10:53:53.297Z,16.47
2022-11-30T10:56:19.979Z,15.63
2022-11-30T10:58:56.721Z,19.03
2022-11-30T11:01:41.034Z,13.07
2022-11-30T11:04:17.533Z,14.60
2022-11-30T11:06:52.638Z,14.87
2022-11-30T11:09:24.358Z,16.33
2022-11-30T11:11:59.652Z,12.47
2022-11-30T11:14:28.202Z,12.83
2022-11-30T11:17:00.303Z,13.00
2022-11-30T11:19:42.217Z,14.63
2022-11-30T11:22:26.839Z,11.67
2022-11-30T11:25:19.268Z,13.60
2022-11-30T11:27:55.614Z,13.17
2022-11-30T11:30:25.167Z,11.60
2022-11-30T11:33:25.729Z,12.77
2022-11-30T11:36:14.347Z,12.40
2022-11-30T11:38:43.729Z,13.47
2022-11-30T11:41:17.017Z,12.70
2022-11-30T11:43:58.519Z,14.37
2022-11-30T11:46:25.325Z,14.90
2022-11-30T11:49:21.259Z,13.93
2022-11-30T11:51:58.929Z,14.50
2022-11-30T11:54:50.920Z,14.63
2022-11-30T11:57:21.371Z,15.93
2022-11-30T11:59:54.924Z,15.53
2022-11-30T12:02:39.833Z,14.90
2022-11-30T12:05:17.734Z,16.33
2022-11-30T12:07:56.307Z,16.93
2022-11-30T12:13:27.135Z,17.80
2022-11-30T12:16:08.783Z,19.23
2022-11-30T12:19:10.626Z,23.00
2022-11-30T12:21:54.887Z,22.30
2022-11-30T12:25:05.531Z,20.90
2022-11-30T12:27:43.274Z,21.47
2022-11-30T12:30:33.253Z,21.63
2022-11-30T12:33:15.680Z,22.40
2022-11-30T12:35:58.657Z,23.17
2022-11-30T12:38:53.304Z,23.23
2022-11-30T12:41:37.246Z,24.37
2022-11-30T12:44:28.859Z,23.47
2022-11-30T12:47:18.443Z,20.00
2022-11-30T12:50:03.269Z,21.73
2022-11-30T12:52:39.100Z,19.67
2022-11-30T12:55:24.215Z,18.53
2022-11-30T12:58:15.092Z,20.00
2022-11-30T13:01:09.605Z,18.53
2022-11-30T13:03:49.355Z,19.13
2022-11-30T13:06:23.294Z,18.87
2022-11-30T13:09:02.993Z,19.37
2022-11-30T13:11:36.378Z,18.20
2022-11-30T13:14:09.917Z,18.87
2022-11-30T13:16:37.247Z,17.37
2022-11-30T13:19:29.877Z,17.40
2022-11-30T13:22:02.644Z,19.07
2022-11-30T13:24:44.620Z,18.07
2022-11-30T13:27:21.627Z,18.00
2022-11-30T13:30:19.334Z,17.87
2022-11-30T13:33:01.316Z,19.10
2022-11-30T13:35:27.877Z,18.20
2022-11-30T13:38:35.126Z,18.30
2022-11-30T13:40:55.467Z,18.83
2022-11-30T13:43:23.767Z,20.27
2022-11-30T13:46:03.009Z,18.47
2022-11-30T13:48:38.442Z,18.90
2022-11-30T13:51:05.635Z,20.90
2022-11-30T13:53:35.919Z,20.30
2022-11-30T13:56:11.454Z,19.83
2022-11-30T13:59:16.672Z,19.87
2022-11-30T14:01:43.324Z,19.93
2022-11-30T14:04:18.816Z,19.30
2022-11-30T14:06:51.570Z,21.10
2022-11-30T14:09:36.861Z,22.33
2022-11-30T14:12:31.380Z,19.70
2022-11-30T14:14:59.595Z,21.90
2022-11-30T14:17:28.877Z,23.33
2022-11-30T14:20:07.590Z,21.13
2022-11-30T14:22:34.864Z,23.03
2022-11-30T14:25:02.975Z,23.27
2022-11-30T14:27:30.462Z,22.90
2022-11-30T14:30:02.782Z,21.17
2022-11-30T14:32:38.010Z,21.30
2022-11-30T14:35:18.149Z,22.37
2022-11-30T14:37:52.467Z,21.50
2022-11-30T14:40:22.002Z,22.37
2022-11-30T14:42:50.974Z,20.63
2022-11-30T14:45:26.684Z,23.80
2022-11-30T14:48:05.630Z,19.50
2022-11-30T14:50:32.968Z,19.40
2022-11-30T14:53:11.241Z,21.93
2022-11-30T14:55:59.719Z,26.07
2022-11-30T14:58:39.009Z,23.00
2022-11-30T15:01:25.665Z,22.80
2022-11-30T15:03:55.707Z,25.90
2022-11-30T15:06:28.958Z,24.07
2022-11-30T15:08:58.025Z,21.60
2022-11-30T15:11:25.096Z,23.30
2022-11-30T15:13:54.482Z,26.23
2022-11-30T15:16:24.754Z,22.57
2022-11-30T15:18:53.805Z,24.83
2022-11-30T15:21:26.136Z,22.60
2022-11-30T15:23:55.326Z,22.77
2022-11-30T15:26:37.399Z,23.87
2022-11-30T15:29:09.718Z,22.17
2022-11-30T15:31:41.691Z,22.70
2022-11-30T15:34:18.669Z,21.00
2022-11-30T15:36:46.389Z,21.23
2022-11-30T15:39:33.212Z,19.07
2022-11-30T15:42:02.184Z,19.90
2022-11-30T15:44:37.762Z,20.20
2022-11-30T15:47:08.201Z,20.27
2022-11-30T15:49:36.392Z,19.40
2022-11-30T15:52:09.191Z,20.10
2022-11-30T15:54:43.914Z,18.27
2022-11-30T15:57:10.953Z,17.70
2022-11-30T15:59:37.555Z,20.47
2022-11-30T16:02:16.431Z,19.67
2022-11-30T16:04:58.107Z,18.87
2022-11-30T16:07:28.566Z,16.97
2022-11-30T16:10:06.331Z,17.83
2022-11-30T16:12:33.456Z,17.97
2022-11-30T16:15:00.049Z,17.37
2022-11-30T16:17:28.202Z,18.13
2022-11-30T16:19:54.734Z,17.50
2022-11-30T16:22:21.364Z,17.23
2022-11-30T16:24:48.050Z,17.40
2022-11-30T16:27:19.494Z,18.63
2022-11-30T16:29:52.135Z,16.87
2022-11-30T16:32:19.518Z,16.80
2022-11-30T16:34:48.024Z,17.00
2022-11-30T16:37:14.803Z,15.87
2022-11-30T16:39:41.464Z,16.43
2022-11-30T16:42:12.400Z,16.57
2022-11-30T16:44:39.004Z,15.07
2022-11-30T16:47:05.613Z,18.83
2022-11-30T16:49:32.240Z,19.20
2022-11-30T16:51:58.876Z,16.97
2022-11-30T16:54:25.456Z,16.70
2022-11-30T16:56:52.063Z,15.87
2022-11-30T16:59:18.630Z,16.93
2022-11-30T17:01:47.368Z,16.73
2022-11-30T17:04:19.606Z,16.77
2022-11-30T17:06:50.207Z,16.50
2022-11-30T17:09:20.276Z,15.47
2022-11-30T17:11:50.447Z,16.27
2022-11-30T17:14:17.564Z,17.10
2022-11-30T17:16:44.188Z,15.67
2022-11-30T17:19:11.677Z,14.77
2022-11-30T17:21:39.979Z,15.80
2022-11-30T17:24:07.059Z,16.40
2022-11-30T17:26:33.815Z,16.40
2022-11-30T17:29:00.441Z,14.83
2022-11-30T17:31:27.175Z,15.73
2022-11-30T17:33:53.918Z,15.63
2022-11-30T17:36:20.559Z,15.73
2022-11-30T17:38:47.184Z,15.33
2022-11-30T17:41:19.108Z,14.83
2022-11-30T17:43:46.674Z,15.73
2022-11-30T17:46:15.768Z,14.37
2022-11-30T17:48:43.725Z,13.67
2022-11-30T17:51:10.982Z,14.47
2022-11-30T17:53:38.651Z,15.77
2022-11-30T17:56:12.691Z,14.77
2022-11-30T17:58:43.915Z,14.53
2022-11-30T18:01:25.501Z,14.60
2022-11-30T18:03:53.575Z,14.90
2022-11-30T18:06:20.556Z,14.90
2022-11-30T18:08:47.392Z,15.43
2022-11-30T18:11:17.400Z,15.33
2022-11-30T18:13:43.999Z,14.93
2022-11-30T18:16:19.838Z,14.73
2022-11-30T18:18:48.521Z,15.67
2022-11-30T18:21:19.190Z,15.83
2022-11-30T18:23:46.037Z,16.40
2022-11-30T18:26:15.575Z,16.73
2022-11-30T18:28:42.921Z,17.10
2022-11-30T18:31:09.941Z,15.27
2022-11-30T18:33:37.446Z,15.87
2022-11-30T18:36:07.529Z,16.87
2022-11-30T18:38:37.964Z,15.57
2022-11-30T18:41:06.392Z,17.17
2022-11-30T18:43:33.980Z,17.47
2022-11-30T18:46:05.490Z,17.43
2022-11-30T18:48:32.307Z,16.47
2022-11-30T18:50:58.891Z,16.73
2022-11-30T18:53:25.764Z,16.10
2022-11-30T18:55:52.356Z,16.33
2022-11-30T18:58:18.916Z,16.93
2022-11-30T19:00:45.501Z,16.13
2022-11-30T19:03:12.080Z,19.20
2022-11-30T19:05:40.481Z,34.67
2022-11-30T19:08:11.398Z,18.53
2022-11-30T19:10:39.808Z,17.73
2022-11-30T19:13:07.096Z,17.10
2022-11-30T19:15:41.127Z,17.67
2022-11-30T19:18:10.871Z,15.90
2022-11-30T19:20:41.458Z,15.53
2022-11-30T19:23:08.369Z,17.40
2022-11-30T19:25:35.023Z,17.17
2022-11-30T19:28:01.606Z,21.20
2022-11-30T19:30:28.243Z,18.17
2022-11-30T19:32:54.858Z,18.10
2022-11-30T19:35:23.139Z,19.93
2022-11-30T19:37:52.241Z,19.80
2022-11-30T19:40:19.192Z,17.97
2022-11-30T19:42:45.827Z,18.43
2022-11-30T19:45:12.431Z,17.70
2022-11-30T19:47:39.124Z,19.07
2022-11-30T19:50:06.215Z,16.43
2022-11-30T19:52:32.798Z,16.87
2022-11-30T19:54:59.389Z,15.87
2022-11-30T19:57:25.996Z,18.40
2022-11-30T19:59:52.601Z,16.47
2022-11-30T20:02:19.240Z,16.93
2022-11-30T20:04:45.973Z,16.10
2022-11-30T20:07:13.898Z,16.33
2022-11-30T20:09:40.950Z,17.30
2022-11-30T20:12:07.566Z,17.40
2022-11-30T20:14:34.158Z,17.00
2022-11-30T20:17:00.706Z,16.60
2022-11-30T20:19:27.583Z,17.33
2022-11-30T20:21:54.200Z,17.10
2022-11-30T20:24:20.864Z,16.97
2022-11-30T20:26:47.473Z,17.70
2022-11-30T20:29:16.063Z,15.03
2022-11-30T20:31:45.034Z,16.47
2022-11-30T20:34:11.678Z,17.03
2022-11-30T20:36:38.280Z,17.37
2022-11-30T20:39:05.896Z,20.40
2022-11-30T20:41:34.012Z,18.10
2022-11-30T20:44:00.612Z,17.17
2022-11-30T20:46:32.831Z,18.80
2022-11-30T20:49:01.203Z,18.20
2022-11-30T20:51:34.724Z,16.93
2022-11-30T20:54:08.520Z,17.63
2022-11-30T20:56:37.207Z,18.07
2022-11-30T20:59:08.789Z,17.30
2022-11-30T21:01:35.472Z,16.37
2022-11-30T21:04:02.439Z,17.13
2022-11-30T21:06:30.441Z,17.90
2022-11-30T21:08:57.996Z,19.63
2022-11-30T21:11:24.920Z,17.30
2022-11-30T21:13:52.169Z,21.27
2022-11-30T21:16:27.341Z,18.07
2022-11-30T21:18:56.029Z,19.57
2022-11-30T21:21:24.537Z,20.97
2022-11-30T21:23:51.732Z,18.87
2022-11-30T21:26:18.270Z,19.20
2022-11-30T21:28:46.062Z,19.90
2022-11-30T21:31:13.074Z,17.53
2022-11-30T21:33:40.107Z,17.83
2022-11-30T21:36:08.952Z,18.63
2022-11-30T21:38:35.878Z,17.47
2022-11-30T21:41:03.188Z,18.23
2022-11-30T21:43:32.774Z,16.30
2022-11-30T21:46:08.363Z,16.90
2022-11-30T21:48:36.558Z,18.43
2022-11-30T21:51:14.939Z,25.93
2022-11-30T21:53:45.072Z,17.80
2022-11-30T21:56:15.485Z,22.27
2022-11-30T21:58:45.557Z,16.20
2022-11-30T22:01:18.238Z,16.77
2022-11-30T22:03:45.153Z,15.97
2022-11-30T22:06:14.196Z,16.53
2022-11-30T22:08:41.324Z,15.87
2022-11-30T22:11:10.368Z,16.83
2022-11-30T22:13:37.697Z,16.00
2022-11-30T22:16:07.525Z,16.57
2022-11-30T22:18:34.743Z,16.10
2022-11-30T22:21:10.085Z,15.50
2022-11-30T22:23:39.237Z,16.43
2022-11-30T22:26:15.114Z,16.57
2022-11-30T22:28:44.823Z,16.50
2022-11-30T22:31:13.391Z,17.33
2022-11-30T22:33:42.364Z,15.13
2022-11-30T22:36:13.686Z,16.57
2022-11-30T22:38:40.668Z,16.03
2022-11-30T22:41:10.744Z,16.60
2022-11-30T22:43:37.682Z,15.17
2022-11-30T22:46:13.530Z,16.10
2022-11-30T22:48:41.305Z,16.03
2022-11-30T22:51:19.676Z,15.10
2022-11-30T22:53:49.738Z,14.93
2022-11-30T22:56:25.208Z,14.80
2022-11-30T22:58:54.198Z,15.17
2022-11-30T23:01:23.783Z,15.93
2022-11-30T23:03:53.530Z,16.83
2022-11-30T23:06:21.051Z,14.80
2022-11-30T23:08:48.772Z,16.07
2022-11-30T23:11:22.014Z,16.57
2022-11-30T23:13:49.162Z,17.20
2022-11-30T23:16:16.561Z,18.17
2022-11-30T23:18:45.928Z,16.50
2022-11-30T23:21:15.381Z,15.77
2022-11-30T23:23:42.406Z,16.63
2022-11-30T23:26:33.790Z,16.00
2022-11-30T23:29:03.697Z,16.33
2022-11-30T23:31:35.242Z,15.63
2022-11-30T23:34:08.381Z,15.47
2022-11-30T23:36:35.823Z,15.63
2022-11-30T23:39:05.988Z,16.73
2022-11-30T23:41:32.958Z,16.57
2022-11-30T23:43:59.967Z,18.73
2022-11-30T23:46:26.627Z,17.80
2022-11-30T23:48:54.877Z,18.17
2022-11-30T23:51:22.316Z,21.30
2022-11-30T23:53:48.939Z,21.43
2022-11-30T23:56:17.639Z,18.50
2022-11-30T23:58:45.224Z,18.20
